createdAt,value
2023-05-11T00:01:07.540Z,80.80
2023-05-11T00:03:38.384Z,81.20
2023-05-11T00:06:05.472Z,81.20
2023-05-11T00:08:34.484Z,81.10
2023-05-11T00:11:01.673Z,81.00
2023-05-11T00:13:28.901Z,81.00
2023-05-11T00:15:55.815Z,81.10
2023-05-11T00:18:22.768Z,81.00
2023-05-11T00:20:49.673Z,80.90
2023-05-11T00:23:19.022Z,81.00
2023-05-11T00:25:45.786Z,81.00
2023-05-11T00:28:14.791Z,81.00
2023-05-11T00:30:46.129Z,81.10
2023-05-11T00:33:15.259Z,81.30
2023-05-11T00:35:42.927Z,81.50
2023-05-11T00:38:10.061Z,81.80
2023-05-11T00:40:36.832Z,81.50
2023-05-11T00:43:06.199Z,81.70
2023-05-11T00:45:33.379Z,81.90
2023-05-11T00:48:02.635Z,82.00
2023-05-11T00:50:29.529Z,82.10
2023-05-11T00:52:58.801Z,82.20
2023-05-11T00:55:25.548Z,82.40
2023-05-11T00:57:52.305Z,82.60
2023-05-11T01:00:19.286Z,82.90
2023-05-11T01:02:46.369Z,83.10
2023-05-11T01:05:13.342Z,83.20
2023-05-11T01:08:13.136Z,83.30
2023-05-11T01:10:47.178Z,83.40
2023-05-11T01:13:16.737Z,83.70
2023-05-11T01:15:53.394Z,83.60
2023-05-11T01:18:44.332Z,83.20
2023-05-11T01:21:16.316Z,83.20
2023-05-11T01:24:05.168Z,83.40
2023-05-11T01:27:11.493Z,83.40
2023-05-11T01:30:16.404Z,83.40
2023-05-11T01:32:43.436Z,83.30
2023-05-11T01:35:20.516Z,83.40
2023-05-11T01:37:54.408Z,83.30
2023-05-11T01:40:26.090Z,83.40
2023-05-11T01:43:04.205Z,83.70
2023-05-11T01:45:33.178Z,83.90
2023-05-11T01:47:59.996Z,84.40
2023-05-11T01:50:26.854Z,84.50
2023-05-11T01:52:53.598Z,84.70
2023-05-11T01:55:21.989Z,85.00
2023-05-11T01:57:55.507Z,85.10
2023-05-11T02:00:22.401Z,85.40
2023-05-11T02:02:49.307Z,85.50
2023-05-11T02:05:19.632Z,85.70
2023-05-11T02:07:50.113Z,86.10
2023-05-11T02:10:17.600Z,86.00
2023-05-11T02:12:47.355Z,86.00
2023-05-11T02:15:14.143Z,86.00
2023-05-11T02:17:43.686Z,86.10
2023-05-11T02:20:10.667Z,86.10
2023-05-11T02:22:37.632Z,85.80
2023-05-11T02:25:04.836Z,85.40
2023-05-11T02:27:33.035Z,85.50
2023-05-11T02:30:01.990Z,85.50
2023-05-11T02:32:30.051Z,85.40
2023-05-11T02:35:11.630Z,85.50
2023-05-11T02:37:41.653Z,85.60
2023-05-11T02:40:19.653Z,85.90
2023-05-11T02:42:47.615Z,85.90
2023-05-11T02:45:16.883Z,86.20
2023-05-11T02:47:46.759Z,86.40
2023-05-11T02:50:16.241Z,86.70
2023-05-11T02:52:48.925Z,86.90
2023-05-11T02:55:17.050Z,87.00
2023-05-11T02:57:44.694Z,87.00
2023-05-11T03:00:14.191Z,87.20
2023-05-11T03:02:41.292Z,87.60
2023-05-11T03:05:10.335Z,87.50
2023-05-11T03:07:43.017Z,87.80
2023-05-11T03:10:12.648Z,88.00
2023-05-11T03:12:41.690Z,87.90
2023-05-11T03:15:12.251Z,88.00
2023-05-11T03:17:39.189Z,88.40
2023-05-11T03:20:09.544Z,88.40
2023-05-11T03:22:37.038Z,88.50
2023-05-11T03:25:04.126Z,88.70
2023-05-11T03:27:31.166Z,88.80
2023-05-11T03:29:57.956Z,88.90
2023-05-11T03:32:24.872Z,89.10
2023-05-11T03:34:54.140Z,89.30
2023-05-11T03:37:23.021Z,89.40
2023-05-11T03:39:52.438Z,89.80
2023-05-11T03:42:19.235Z,89.70
2023-05-11T03:44:48.993Z,90.00
2023-05-11T03:47:17.975Z,90.10
2023-05-11T03:49:46.970Z,90.10
2023-05-11T03:52:16.252Z,90.20
2023-05-11T03:54:46.067Z,90.40
2023-05-11T03:57:14.213Z,90.50
2023-05-11T03:59:41.263Z,90.70
2023-05-11T04:02:08.607Z,90.70
2023-05-11T04:04:35.590Z,90.80
2023-05-11T04:07:02.388Z,90.80
2023-05-11T04:09:29.197Z,90.70
2023-05-11T04:11:55.974Z,90.80
2023-05-11T04:14:22.755Z,90.80
2023-05-11T04:16:54.245Z,90.90
2023-05-11T04:19:21.019Z,90.80
2023-05-11T04:21:50.109Z,90.90
2023-05-11T04:24:16.841Z,90.80
2023-05-11T04:26:43.610Z,90.80
2023-05-11T04:29:12.630Z,90.60
2023-05-11T04:31:41.930Z,90.60
2023-05-11T04:34:08.716Z,90.60
2023-05-11T04:36:36.079Z,90.50
2023-05-11T04:39:04.429Z,90.50
2023-05-11T04:41:31.198Z,90.50
2023-05-11T04:44:00.115Z,90.30
2023-05-11T04:46:26.950Z,90.30
2023-05-11T04:48:55.946Z,90.30
2023-05-11T04:51:22.721Z,90.10
2023-05-11T04:53:49.549Z,90.00
2023-05-11T04:56:16.349Z,89.90
2023-05-11T04:58:45.704Z,89.50
2023-05-11T05:01:12.554Z,89.30
2023-05-11T05:03:39.312Z,89.30
2023-05-11T05:06:06.218Z,88.60
2023-05-11T05:08:32.998Z,88.70
2023-05-11T05:11:02.076Z,88.20
2023-05-11T05:13:28.869Z,86.90
2023-05-11T05:15:55.729Z,86.10
2023-05-11T05:18:24.608Z,84.90
2023-05-11T05:20:51.370Z,84.40
2023-05-11T05:23:18.116Z,84.20
2023-05-11T05:25:47.352Z,84.60
2023-05-11T05:28:16.341Z,85.40
2023-05-11T05:30:43.117Z,84.70
2023-05-11T05:33:12.216Z,85.00
2023-05-11T05:35:44.179Z,85.00
2023-05-11T05:38:13.114Z,84.40
2023-05-11T05:40:39.908Z,82.70
2023-05-11T05:43:06.855Z,81.80
2023-05-11T05:45:33.657Z,80.90
2023-05-11T05:48:00.814Z,79.50
2023-05-11T05:50:29.963Z,79.20
2023-05-11T05:52:59.065Z,78.70
2023-05-11T05:55:25.930Z,78.80
2023-05-11T05:57:55.100Z,78.20
2023-05-11T06:00:26.486Z,77.60
2023-05-11T06:02:53.405Z,77.00
2023-05-11T06:05:20.438Z,77.00
2023-05-11T06:07:57.988Z,77.40
2023-05-11T06:10:29.416Z,77.20
2023-05-11T06:12:56.333Z,76.70
2023-05-11T06:15:25.510Z,76.20
2023-05-11T06:17:52.360Z,78.00
2023-05-11T06:20:21.793Z,77.10
2023-05-11T06:22:51.071Z,76.40
2023-05-11T06:25:17.876Z,76.70
2023-05-11T06:27:44.624Z,76.00
2023-05-11T06:30:16.324Z,77.20
2023-05-11T06:32:43.375Z,76.20
2023-05-11T06:35:10.328Z,76.50
2023-05-11T06:37:37.059Z,76.60
2023-05-11T06:40:04.052Z,77.00
2023-05-11T06:42:35.249Z,76.30
2023-05-11T06:45:05.086Z,76.40
2023-05-11T06:47:34.062Z,76.00
2023-05-11T06:50:04.115Z,75.50
2023-05-11T06:52:33.365Z,73.80
2023-05-11T06:55:00.193Z,74.40
2023-05-11T06:57:27.015Z,74.70
2023-05-11T06:59:53.800Z,73.30
2023-05-11T07:02:23.064Z,72.90
2023-05-11T07:04:52.047Z,71.40
2023-05-11T07:07:18.866Z,71.80
2023-05-11T07:09:48.076Z,71.70
2023-05-11T07:12:14.878Z,70.80
2023-05-11T07:14:41.658Z,70.60
2023-05-11T07:17:10.903Z,70.30
2023-05-11T07:19:37.781Z,69.20
2023-05-11T07:22:07.148Z,69.10
2023-05-11T07:24:33.966Z,66.80
2023-05-11T07:27:02.084Z,66.80
2023-05-11T07:29:28.828Z,65.90
2023-05-11T07:31:58.100Z,66.70
2023-05-11T07:34:29.396Z,64.40
2023-05-11T07:36:58.404Z,64.70
2023-05-11T07:39:25.170Z,64.40
2023-05-11T07:41:51.963Z,65.50
2023-05-11T07:44:21.444Z,64.70
2023-05-11T07:46:48.327Z,64.80
2023-05-11T07:49:20.597Z,65.20
2023-05-11T07:51:52.738Z,66.40
2023-05-11T07:54:21.656Z,65.30
2023-05-11T07:56:48.647Z,65.80
2023-05-11T07:59:15.392Z,66.20
2023-05-11T08:01:42.618Z,64.10
2023-05-11T08:04:11.809Z,64.40
2023-05-11T08:06:38.601Z,65.40
2023-05-11T08:09:07.927Z,64.80
2023-05-11T08:11:37.048Z,65.70
2023-05-11T08:14:03.863Z,64.60
2023-05-11T08:16:30.645Z,64.10
2023-05-11T08:18:57.468Z,63.40
2023-05-11T08:21:24.299Z,63.80
2023-05-11T08:23:53.291Z,64.00
2023-05-11T08:26:22.281Z,64.10
2023-05-11T08:28:49.012Z,63.60
2023-05-11T08:31:16.126Z,63.50
2023-05-11T08:33:45.146Z,64.00
2023-05-11T08:36:15.503Z,63.40
2023-05-11T08:38:42.262Z,62.20
2023-05-11T08:41:12.026Z,62.20
2023-05-11T08:43:41.910Z,62.10
2023-05-11T08:46:09.102Z,63.00
2023-05-11T08:48:36.258Z,63.00
2023-05-11T08:51:04.392Z,62.70
2023-05-11T08:53:31.255Z,63.00
2023-05-11T08:56:01.328Z,63.00
2023-05-11T08:58:28.235Z,63.00
2023-05-11T09:00:57.850Z,62.40
2023-05-11T09:03:25.090Z,63.10
2023-05-11T09:05:51.826Z,60.00
2023-05-11T09:08:21.100Z,60.80
2023-05-11T09:10:49.087Z,62.70
2023-05-11T09:13:16.069Z,62.00
2023-05-11T09:15:45.119Z,62.30
2023-05-11T09:18:13.454Z,63.20
2023-05-11T09:20:42.815Z,62.40
2023-05-11T09:23:10.050Z,61.00
2023-05-11T09:25:36.797Z,61.40
2023-05-11T09:28:03.868Z,62.70
2023-05-11T09:30:32.824Z,62.70
2023-05-11T09:33:00.383Z,63.60
2023-05-11T09:35:35.314Z,63.00
2023-05-11T09:38:09.949Z,62.00
2023-05-11T09:40:37.961Z,62.10
2023-05-11T09:43:26.019Z,63.30
2023-05-11T09:45:56.315Z,64.20
2023-05-11T09:48:30.263Z,63.40
2023-05-11T09:51:04.745Z,62.80
2023-05-11T09:53:49.665Z,62.00
2023-05-11T09:56:16.582Z,62.40
2023-05-11T09:58:51.382Z,62.00
2023-05-11T10:01:30.428Z,61.20
2023-05-11T10:04:06.113Z,60.80
2023-05-11T10:06:52.932Z,62.40
2023-05-11T10:09:24.382Z,62.20
2023-05-11T10:11:51.352Z,62.70
2023-05-11T10:14:20.651Z,62.90
2023-05-11T10:16:49.460Z,60.10
2023-05-11T10:19:16.524Z,59.80
2023-05-11T10:21:45.950Z,58.50
2023-05-11T10:24:14.800Z,59.80
2023-05-11T10:26:44.012Z,60.10
2023-05-11T10:29:13.345Z,60.50
2023-05-11T10:31:40.196Z,60.40
2023-05-11T10:34:07.077Z,59.90
2023-05-11T10:36:33.954Z,59.40
2023-05-11T10:39:00.711Z,60.10
2023-05-11T10:41:46.364Z,60.40
2023-05-11T10:44:24.815Z,60.10
2023-05-11T10:47:17.775Z,58.70
2023-05-11T10:50:24.292Z,58.50
2023-05-11T10:53:05.857Z,58.10
2023-05-11T10:55:58.611Z,58.40
2023-05-11T10:58:57.645Z,59.20
2023-05-11T11:01:31.992Z,57.50
2023-05-11T11:04:20.560Z,57.70
2023-05-11T11:06:47.312Z,57.80
2023-05-11T11:09:15.631Z,56.10
2023-05-11T11:11:46.287Z,54.40
2023-05-11T11:14:14.672Z,52.80
2023-05-11T11:16:41.933Z,51.60
2023-05-11T11:19:30.827Z,50.60
2023-05-11T11:22:00.447Z,49.60
2023-05-11T11:24:39.445Z,47.10
2023-05-11T11:27:06.884Z,46.30
2023-05-11T11:29:40.779Z,46.50
2023-05-11T11:32:19.797Z,46.00
2023-05-11T11:34:47.243Z,45.50
2023-05-11T11:37:15.081Z,44.10
2023-05-11T11:39:41.863Z,44.20
2023-05-11T11:42:12.015Z,43.90
2023-05-11T11:44:39.126Z,43.00
2023-05-11T11:47:15.528Z,42.10
2023-05-11T11:49:49.326Z,42.50
2023-05-11T11:52:37.583Z,41.70
2023-05-11T11:55:05.213Z,43.20
2023-05-11T11:57:35.267Z,44.70
2023-05-11T12:00:09.044Z,46.70
2023-05-11T12:02:35.933Z,49.40
2023-05-11T12:05:18.405Z,49.80
2023-05-11T12:07:47.930Z,50.50
2023-05-11T12:10:15.772Z,51.70
2023-05-11T12:12:46.280Z,53.60
2023-05-11T12:15:29.665Z,53.90
2023-05-11T12:18:03.328Z,54.50
2023-05-11T12:20:30.322Z,55.90
2023-05-11T12:22:57.076Z,54.70
2023-05-11T12:25:26.401Z,54.90
2023-05-11T12:28:00.436Z,55.20
2023-05-11T12:30:31.235Z,56.60
2023-05-11T12:33:01.187Z,55.20
2023-05-11T12:35:29.554Z,55.60
2023-05-11T12:37:57.140Z,56.00
2023-05-11T12:40:23.983Z,56.50
2023-05-11T12:42:57.631Z,57.10
2023-05-11T12:45:25.038Z,58.40
2023-05-11T12:47:52.953Z,57.90
2023-05-11T12:50:22.384Z,57.50
2023-05-11T12:52:51.399Z,57.20
2023-05-11T12:55:32.772Z,56.70
2023-05-11T12:58:15.969Z,56.20
2023-05-11T13:00:54.758Z,56.00
2023-05-11T13:03:28.060Z,56.40
2023-05-11T13:06:05.059Z,57.00
2023-05-11T13:08:31.844Z,57.30
2023-05-11T13:11:25.767Z,57.50
2023-05-11T13:13:53.272Z,57.50
2023-05-11T13:16:32.738Z,57.30
2023-05-11T13:19:03.879Z,56.40
2023-05-11T13:21:32.779Z,56.70
2023-05-11T13:24:00.147Z,57.30
2023-05-11T13:26:28.795Z,57.00
2023-05-11T13:29:10.359Z,56.20
2023-05-11T13:31:54.363Z,56.90
2023-05-11T13:34:21.279Z,55.20
2023-05-11T13:36:50.362Z,56.20
2023-05-11T13:39:17.262Z,55.50
2023-05-11T13:41:44.054Z,55.50
2023-05-11T13:44:10.907Z,55.40
2023-05-11T13:46:37.850Z,55.30
2023-05-11T13:49:05.204Z,56.00
2023-05-11T13:51:34.871Z,56.60
2023-05-11T13:54:02.546Z,56.20
2023-05-11T13:56:29.565Z,56.30
2023-05-11T13:58:58.532Z,56.90
2023-05-11T14:01:27.571Z,55.70
2023-05-11T14:03:57.585Z,56.20
2023-05-11T14:06:24.814Z,56.60
2023-05-11T14:08:52.258Z,56.20
2023-05-11T14:11:19.010Z,56.30
2023-05-11T14:13:45.759Z,55.90
2023-05-11T14:16:12.556Z,54.00
2023-05-11T14:18:44.438Z,53.80
2023-05-11T14:21:13.623Z,52.50
2023-05-11T14:23:47.338Z,51.40
2023-05-11T14:26:20.686Z,49.20
2023-05-11T14:28:50.056Z,47.60
2023-05-11T14:31:17.385Z,43.70
2023-05-11T14:33:44.175Z,44.10
2023-05-11T14:36:13.446Z,44.40
2023-05-11T14:38:42.877Z,42.90
2023-05-11T14:41:09.849Z,42.30
2023-05-11T14:43:36.725Z,41.70
2023-05-11T14:46:04.265Z,41.30
2023-05-11T14:48:33.286Z,41.00
2023-05-11T14:51:00.192Z,42.60
2023-05-11T14:53:29.467Z,44.90
2023-05-11T14:55:56.677Z,46.60
2023-05-11T14:58:23.489Z,48.70
2023-05-11T15:00:52.414Z,49.50
2023-05-11T15:03:21.691Z,50.80
2023-05-11T15:05:48.457Z,51.30
2023-05-11T15:08:28.395Z,53.10
2023-05-11T15:10:59.186Z,52.60
2023-05-11T15:13:28.385Z,53.20
2023-05-11T15:15:55.242Z,53.60
2023-05-11T15:18:22.154Z,54.30
2023-05-11T15:20:48.942Z,54.80
2023-05-11T15:23:18.319Z,55.60
2023-05-11T15:25:45.440Z,55.70
2023-05-11T15:28:12.515Z,56.00
2023-05-11T15:30:41.400Z,55.70
2023-05-11T15:33:11.071Z,56.30
2023-05-11T15:35:38.133Z,56.40
2023-05-11T15:38:06.197Z,56.00
2023-05-11T15:40:35.595Z,56.40
2023-05-11T15:43:02.370Z,56.80
2023-05-11T15:45:29.649Z,57.20
2023-05-11T15:48:01.370Z,57.20
2023-05-11T15:50:28.178Z,57.50
2023-05-11T15:52:57.177Z,56.70
2023-05-11T15:55:26.451Z,56.60
2023-05-11T15:57:53.305Z,56.70
2023-05-11T16:00:20.382Z,56.80
2023-05-11T16:02:49.867Z,57.50
2023-05-11T16:05:16.787Z,57.20
2023-05-11T16:07:46.109Z,57.00
2023-05-11T16:10:15.345Z,58.00
2023-05-11T16:12:42.092Z,57.70
2023-05-11T16:15:09.177Z,57.70
2023-05-11T16:17:36.430Z,57.80
2023-05-11T16:20:04.591Z,57.70
2023-05-11T16:22:31.458Z,57.50
2023-05-11T16:24:58.167Z,57.70
2023-05-11T16:27:27.052Z,57.80
2023-05-11T16:29:53.841Z,58.40
2023-05-11T16:32:20.773Z,58.70
2023-05-11T16:34:47.563Z,58.60
2023-05-11T16:37:16.778Z,58.70
2023-05-11T16:39:43.686Z,58.50
2023-05-11T16:42:10.633Z,58.90
2023-05-11T16:44:37.367Z,58.80
2023-05-11T16:47:04.409Z,58.70
2023-05-11T16:49:31.259Z,58.80
2023-05-11T16:51:58.000Z,58.90
2023-05-11T16:54:26.331Z,58.70
2023-05-11T16:56:53.780Z,58.80
2023-05-11T16:59:20.895Z,58.80
2023-05-11T17:01:47.858Z,59.30
2023-05-11T17:04:17.345Z,59.20
2023-05-11T17:06:46.389Z,59.40
2023-05-11T17:09:13.445Z,59.60
2023-05-11T17:11:42.780Z,59.80
2023-05-11T17:14:11.125Z,59.10
2023-05-11T17:16:37.941Z,58.90
2023-05-11T17:19:09.530Z,59.10
2023-05-11T17:21:36.478Z,59.10
2023-05-11T17:24:05.407Z,59.30
2023-05-11T17:26:46.405Z,59.40
2023-05-11T17:29:15.990Z,59.20
2023-05-11T17:31:42.934Z,58.90
2023-05-11T17:34:10.246Z,59.00
2023-05-11T17:36:39.626Z,59.00
2023-05-11T17:39:06.412Z,58.60
2023-05-11T17:41:33.214Z,58.70
2023-05-11T17:44:00.057Z,59.20
2023-05-11T17:46:28.139Z,59.00
2023-05-11T17:48:55.305Z,58.80
2023-05-11T17:51:22.211Z,58.90
2023-05-11T17:53:52.070Z,59.00
2023-05-11T17:56:19.223Z,59.20
2023-05-11T17:58:49.430Z,59.30
2023-05-11T18:01:16.724Z,59.50
2023-05-11T18:03:46.817Z,59.80
2023-05-11T18:06:13.790Z,59.90
2023-05-11T18:08:40.588Z,60.00
2023-05-11T18:11:10.097Z,60.00
2023-05-11T18:13:36.962Z,60.00
2023-05-11T18:16:07.204Z,60.30
2023-05-11T18:18:34.439Z,60.60
2023-05-11T18:21:12.533Z,60.70
2023-05-11T18:23:39.288Z,61.10
2023-05-11T18:26:06.482Z,61.90
2023-05-11T18:28:33.282Z,61.10
2023-05-11T18:31:00.358Z,61.40
2023-05-11T18:33:27.327Z,61.50
2023-05-11T18:35:56.292Z,61.60
2023-05-11T18:38:27.743Z,61.70
2023-05-11T18:40:57.179Z,62.00
2023-05-11T18:43:23.962Z,63.00
2023-05-11T18:45:52.305Z,62.50
2023-05-11T18:48:20.395Z,62.30
2023-05-11T18:50:56.574Z,62.60
2023-05-11T18:53:23.890Z,62.80
2023-05-11T18:55:53.526Z,63.10
2023-05-11T18:58:23.664Z,63.20
2023-05-11T19:00:53.821Z,63.60
2023-05-11T19:03:20.927Z,63.60
2023-05-11T19:05:48.440Z,65.10
2023-05-11T19:08:15.260Z,64.60
2023-05-11T19:10:45.421Z,65.00
2023-05-11T19:13:14.818Z,65.40
2023-05-11T19:15:41.725Z,65.80
2023-05-11T19:18:08.579Z,66.00
2023-05-11T19:20:35.437Z,66.30
2023-05-11T19:23:02.311Z,66.60
2023-05-11T19:25:29.137Z,66.90
2023-05-11T19:27:58.164Z,67.20
2023-05-11T19:30:25.043Z,67.70
2023-05-11T19:32:51.878Z,67.90
2023-05-11T19:35:19.077Z,68.30
2023-05-11T19:37:48.421Z,68.70
2023-05-11T19:40:44.651Z,69.00
2023-05-11T19:43:12.920Z,69.00
2023-05-11T19:45:42.338Z,69.30
2023-05-11T19:48:09.250Z,69.60
2023-05-11T19:50:36.067Z,69.90
2023-05-11T19:53:02.820Z,70.20
2023-05-11T19:55:29.611Z,70.40
2023-05-11T19:57:56.402Z,70.50
2023-05-11T20:00:25.261Z,70.60
2023-05-11T20:02:55.216Z,70.90
2023-05-11T20:05:22.063Z,71.10
2023-05-11T20:07:48.861Z,71.30
2023-05-11T20:10:15.998Z,71.40
2023-05-11T20:12:47.519Z,71.60
2023-05-11T20:15:16.564Z,71.60
2023-05-11T20:17:43.556Z,71.60
2023-05-11T20:20:11.046Z,71.80
2023-05-11T20:22:37.993Z,72.00
2023-05-11T20:25:09.608Z,72.10
2023-05-11T20:27:41.895Z,72.00
2023-05-11T20:30:09.207Z,72.40
2023-05-11T20:32:37.344Z,72.30
2023-05-11T20:35:07.479Z,72.50
2023-05-11T20:37:34.250Z,72.70
2023-05-11T20:40:01.110Z,72.90
2023-05-11T20:42:27.907Z,73.20
2023-05-11T20:44:54.655Z,73.40
2023-05-11T20:47:21.971Z,73.70
2023-05-11T20:49:50.056Z,74.20
2023-05-11T20:52:20.347Z,75.00
2023-05-11T20:54:49.023Z,74.20
2023-05-11T20:57:15.881Z,74.50
2023-05-11T21:02:14.141Z,74.80
2023-05-11T21:04:45.912Z,74.90
2023-05-11T21:07:14.919Z,75.20
2023-05-11T21:09:44.809Z,76.30
2023-05-11T21:12:13.790Z,75.80
2023-05-11T21:14:42.782Z,76.10
2023-05-11T21:17:09.553Z,76.30
2023-05-11T21:19:36.324Z,76.30
2023-05-11T21:22:05.510Z,76.50
2023-05-11T21:24:32.738Z,76.80
2023-05-11T21:26:59.788Z,77.00
2023-05-11T21:29:26.734Z,77.10
2023-05-11T21:31:53.596Z,77.30
2023-05-11T21:34:20.345Z,77.20
2023-05-11T21:36:49.345Z,77.30
2023-05-11T21:39:16.120Z,78.20
2023-05-11T21:41:42.950Z,77.60
2023-05-11T21:44:09.725Z,77.60
2023-05-11T21:46:38.625Z,77.70
2023-05-11T21:49:05.409Z,77.90
2023-05-11T21:51:34.635Z,78.00
2023-05-11T21:54:01.407Z,78.00
2023-05-11T21:56:28.326Z,78.30
2023-05-11T21:58:55.123Z,78.30
2023-05-11T22:01:22.582Z,78.40
2023-05-11T22:03:49.568Z,78.40
2023-05-11T22:06:16.381Z,78.60
2023-05-11T22:08:43.127Z,78.80
2023-05-11T22:11:12.056Z,79.00
2023-05-11T22:13:41.119Z,79.10
2023-05-11T22:16:08.127Z,79.30
2023-05-11T22:18:34.954Z,79.40
2023-05-11T22:21:01.731Z,79.70
2023-05-11T22:23:28.524Z,80.00
2023-05-11T22:25:57.411Z,80.20
2023-05-11T22:28:24.166Z,80.20
2023-05-11T22:30:53.168Z,80.30
2023-05-11T22:33:22.171Z,80.30
2023-05-11T22:35:48.880Z,80.40
2023-05-11T22:38:15.685Z,80.70
2023-05-11T22:40:42.435Z,81.10
2023-05-11T22:43:11.776Z,81.20
2023-05-11T22:45:38.629Z,81.30
2023-05-11T22:48:06.022Z,81.30
2023-05-11T22:50:32.835Z,81.60
2023-05-11T22:53:02.092Z,81.80
2023-05-11T22:55:31.115Z,82.00
2023-05-11T22:57:57.863Z,82.10
2023-05-11T23:00:25.399Z,82.50
2023-05-11T23:02:52.510Z,82.60
2023-05-11T23:05:19.420Z,82.60
2023-05-11T23:07:46.166Z,82.70
2023-05-11T23:10:15.045Z,82.90
2023-05-11T23:12:41.790Z,83.70
2023-05-11T23:15:09.725Z,83.20
2023-05-11T23:17:36.526Z,83.20
2023-05-11T23:20:06.447Z,83.20
2023-05-11T23:22:33.173Z,83.40
2023-05-11T23:25:02.247Z,83.30
2023-05-11T23:27:33.625Z,83.20
2023-05-11T23:30:02.958Z,83.40
2023-05-11T23:32:29.958Z,83.60
2023-05-11T23:34:56.747Z,83.70
2023-05-11T23:37:25.946Z,83.60
2023-05-11T23:39:52.758Z,83.40
2023-05-11T23:42:19.581Z,83.40
2023-05-11T23:44:49.232Z,83.60
2023-05-11T23:47:16.085Z,83.60
2023-05-11T23:49:42.863Z,83.80
2023-05-11T23:52:09.648Z,83.90
2023-05-11T23:54:36.409Z,83.80
2023-05-11T23:57:03.199Z,83.70
2023-05-11T23:59:32.193Z,83.80
